sensor_id;sensor_type;location;lat;lon;timestamp;P1;durP1;ratioP1;P2;durP2;ratioP2
51020;SDS011;38907;45.562;8.856;2022-07-24T00:02:11;9.38;;;6.90;;
51020;SDS011;38907;45.562;8.856;2022-07-24T00:07:16;12.43;;;7.28;;
51020;SDS011;38907;45.562;8.856;2022-07-24T00:12:19;11.27;;;7.13;;
51020;SDS011;38907;45.562;8.856;2022-07-24T00:17:21;7.80;;;6.43;;
51020;SDS011;38907;45.562;8.856;2022-07-24T00:22:26;8.15;;;6.43;;
51020;SDS011;38907;45.562;8.856;2022-07-24T00:27:29;9.18;;;6.50;;
51020;SDS011;38907;45.562;8.856;2022-07-24T00:32:32;11.20;;;7.05;;
51020;SDS011;38907;45.562;8.856;2022-07-24T00:37:36;10.38;;;7.38;;
51020;SDS011;38907;45.562;8.856;2022-07-24T00:42:39;13.27;;;6.72;;
51020;SDS011;38907;45.562;8.856;2022-07-24T00:47:42;7.38;;;6.68;;
51020;SDS011;38907;45.562;8.856;2022-07-24T00:52:46;8.05;;;6.53;;
51020;SDS011;38907;45.562;8.856;2022-07-24T00:57:50;8.75;;;6.78;;
51020;SDS011;38907;45.562;8.856;2022-07-24T01:02:52;10.63;;;7.18;;
51020;SDS011;38907;45.562;8.856;2022-07-24T01:07:57;10.68;;;6.80;;
51020;SDS011;38907;45.562;8.856;2022-07-24T01:13:00;8.05;;;6.65;;
51020;SDS011;38907;45.562;8.856;2022-07-24T01:18:03;8.88;;;6.55;;
51020;SDS011;38907;45.562;8.856;2022-07-24T01:28:23;9.88;;;7.10;;
51020;SDS011;38907;45.562;8.856;2022-07-24T01:33:26;11.00;;;7.07;;
51020;SDS011;38907;45.562;8.856;2022-07-24T01:38:29;11.88;;;7.32;;
51020;SDS011;38907;45.562;8.856;2022-07-24T01:43:33;8.70;;;7.57;;
51020;SDS011;38907;45.562;8.856;2022-07-24T01:48:36;11.20;;;7.13;;
51020;SDS011;38907;45.562;8.856;2022-07-24T01:53:39;9.13;;;6.72;;
51020;SDS011;38907;45.562;8.856;2022-07-24T01:58:44;6.82;;;6.13;;
51020;SDS011;38907;45.562;8.856;2022-07-24T02:03:46;9.02;;;6.65;;
51020;SDS011;38907;45.562;8.856;2022-07-24T02:08:49;10.15;;;6.93;;
51020;SDS011;38907;45.562;8.856;2022-07-24T02:13:54;10.52;;;7.53;;
51020;SDS011;38907;45.562;8.856;2022-07-24T02:18:57;9.10;;;6.60;;
51020;SDS011;38907;45.562;8.856;2022-07-24T02:24:00;9.65;;;7.00;;
51020;SDS011;38907;45.562;8.856;2022-07-24T02:29:04;11.75;;;7.50;;
51020;SDS011;38907;45.562;8.856;2022-07-24T02:34:07;12.52;;;7.35;;
51020;SDS011;38907;45.562;8.856;2022-07-24T02:39:10;9.75;;;6.70;;
51020;SDS011;38907;45.562;8.856;2022-07-24T02:44:14;19.02;;;7.15;;
51020;SDS011;38907;45.562;8.856;2022-07-24T02:49:17;9.02;;;6.38;;
51020;SDS011;38907;45.562;8.856;2022-07-24T02:54:20;8.48;;;6.93;;
51020;SDS011;38907;45.562;8.856;2022-07-24T02:59:24;8.07;;;6.97;;
51020;SDS011;38907;45.562;8.856;2022-07-24T03:04:27;11.73;;;7.40;;
51020;SDS011;38907;45.562;8.856;2022-07-24T03:09:30;10.95;;;7.15;;
51020;SDS011;38907;45.562;8.856;2022-07-24T03:14:34;9.23;;;7.03;;
51020;SDS011;38907;45.562;8.856;2022-07-24T03:19:38;12.43;;;7.18;;
51020;SDS011;38907;45.562;8.856;2022-07-24T03:24:41;7.68;;;6.78;;
51020;SDS011;38907;45.562;8.856;2022-07-24T03:29:45;9.57;;;8.10;;
51020;SDS011;38907;45.562;8.856;2022-07-24T03:34:48;12.10;;;7.63;;
51020;SDS011;38907;45.562;8.856;2022-07-24T03:39:51;10.57;;;7.70;;
51020;SDS011;38907;45.562;8.856;2022-07-24T03:44:55;10.38;;;7.22;;
51020;SDS011;38907;45.562;8.856;2022-07-24T03:49:58;20.42;;;7.95;;
51020;SDS011;38907;45.562;8.856;2022-07-24T03:55:02;10.93;;;7.95;;
51020;SDS011;38907;45.562;8.856;2022-07-24T04:00:08;9.52;;;7.80;;
51020;SDS011;38907;45.562;8.856;2022-07-24T04:05:11;9.82;;;7.32;;
51020;SDS011;38907;45.562;8.856;2022-07-24T04:10:14;9.10;;;8.13;;
51020;SDS011;38907;45.562;8.856;2022-07-24T04:15:18;9.93;;;7.75;;
51020;SDS011;38907;45.562;8.856;2022-07-24T04:20:21;10.80;;;7.50;;
51020;SDS011;38907;45.562;8.856;2022-07-24T04:25:24;9.95;;;7.97;;
51020;SDS011;38907;45.562;8.856;2022-07-24T04:30:28;16.10;;;8.07;;
51020;SDS011;38907;45.562;8.856;2022-07-24T04:35:31;13.88;;;8.80;;
51020;SDS011;38907;45.562;8.856;2022-07-24T04:40:34;8.93;;;8.05;;
51020;SDS011;38907;45.562;8.856;2022-07-24T04:45:38;17.33;;;8.35;;
51020;SDS011;38907;45.562;8.856;2022-07-24T04:50:41;18.98;;;9.23;;
51020;SDS011;38907;45.562;8.856;2022-07-24T04:55:44;11.10;;;8.15;;
51020;SDS011;38907;45.562;8.856;2022-07-24T05:00:48;12.73;;;8.18;;
51020;SDS011;38907;45.562;8.856;2022-07-24T05:05:51;11.55;;;8.35;;
51020;SDS011;38907;45.562;8.856;2022-07-24T05:10:54;11.57;;;8.27;;
51020;SDS011;38907;45.562;8.856;2022-07-24T05:15:58;24.92;;;8.93;;
51020;SDS011;38907;45.562;8.856;2022-07-24T05:21:01;13.88;;;8.48;;
51020;SDS011;38907;45.562;8.856;2022-07-24T05:26:04;11.13;;;8.43;;
51020;SDS011;38907;45.562;8.856;2022-07-24T05:31:08;16.80;;;9.55;;
51020;SDS011;38907;45.562;8.856;2022-07-24T05:36:11;11.45;;;8.50;;
51020;SDS011;38907;45.562;8.856;2022-07-24T05:41:14;13.10;;;8.82;;
51020;SDS011;38907;45.562;8.856;2022-07-24T05:46:18;10.13;;;8.60;;
51020;SDS011;38907;45.562;8.856;2022-07-24T05:51:22;15.63;;;9.50;;
51020;SDS011;38907;45.562;8.856;2022-07-24T05:56:25;12.05;;;8.57;;
51020;SDS011;38907;45.562;8.856;2022-07-24T06:01:30;12.52;;;8.85;;
51020;SDS011;38907;45.562;8.856;2022-07-24T06:06:33;12.50;;;9.57;;
51020;SDS011;38907;45.562;8.856;2022-07-24T06:11:36;13.07;;;8.73;;
51020;SDS011;38907;45.562;8.856;2022-07-24T06:16:40;12.23;;;9.55;;
51020;SDS011;38907;45.562;8.856;2022-07-24T06:21:43;16.63;;;10.15;;
51020;SDS011;38907;45.562;8.856;2022-07-24T06:26:46;17.58;;;9.95;;
51020;SDS011;38907;45.562;8.856;2022-07-24T06:31:50;13.35;;;9.65;;
51020;SDS011;38907;45.562;8.856;2022-07-24T06:36:53;15.95;;;9.30;;
51020;SDS011;38907;45.562;8.856;2022-07-24T06:41:56;22.50;;;10.27;;
51020;SDS011;38907;45.562;8.856;2022-07-24T06:47:00;12.82;;;10.55;;
51020;SDS011;38907;45.562;8.856;2022-07-24T06:52:03;13.38;;;10.45;;
51020;SDS011;38907;45.562;8.856;2022-07-24T06:57:06;13.27;;;11.07;;
51020;SDS011;38907;45.562;8.856;2022-07-24T07:02:10;15.88;;;10.40;;
51020;SDS011;38907;45.562;8.856;2022-07-24T07:07:13;23.38;;;11.27;;
51020;SDS011;38907;45.562;8.856;2022-07-24T07:12:16;21.85;;;13.00;;
51020;SDS011;38907;45.562;8.856;2022-07-24T07:17:21;19.67;;;11.65;;
51020;SDS011;38907;45.562;8.856;2022-07-24T07:22:24;15.75;;;11.27;;
51020;SDS011;38907;45.562;8.856;2022-07-24T07:27:27;22.63;;;12.35;;
51020;SDS011;38907;45.562;8.856;2022-07-24T07:32:31;16.27;;;11.63;;
51020;SDS011;38907;45.562;8.856;2022-07-24T07:37:34;16.73;;;11.50;;
51020;SDS011;38907;45.562;8.856;2022-07-24T07:42:37;20.55;;;11.65;;
51020;SDS011;38907;45.562;8.856;2022-07-24T07:47:42;14.80;;;11.40;;
51020;SDS011;38907;45.562;8.856;2022-07-24T07:52:45;17.23;;;11.23;;
51020;SDS011;38907;45.562;8.856;2022-07-24T07:57:48;14.88;;;11.23;;
51020;SDS011;38907;45.562;8.856;2022-07-24T08:02:52;15.93;;;10.77;;
51020;SDS011;38907;45.562;8.856;2022-07-24T08:07:55;13.38;;;9.40;;
51020;SDS011;38907;45.562;8.856;2022-07-24T08:12:58;14.25;;;10.18;;
51020;SDS011;38907;45.562;8.856;2022-07-24T08:18:02;16.08;;;10.90;;
51020;SDS011;38907;45.562;8.856;2022-07-24T08:23:07;12.93;;;9.75;;
51020;SDS011;38907;45.562;8.856;2022-07-24T08:28:09;16.20;;;10.23;;
51020;SDS011;38907;45.562;8.856;2022-07-24T08:33:13;15.38;;;11.93;;
51020;SDS011;38907;45.562;8.856;2022-07-24T08:38:16;14.63;;;10.45;;
51020;SDS011;38907;45.562;8.856;2022-07-24T08:43:19;18.10;;;11.13;;
51020;SDS011;38907;45.562;8.856;2022-07-24T08:48:24;14.38;;;10.50;;
51020;SDS011;38907;45.562;8.856;2022-07-24T08:53:29;14.52;;;10.60;;
51020;SDS011;38907;45.562;8.856;2022-07-24T08:58:35;14.93;;;10.70;;
51020;SDS011;38907;45.562;8.856;2022-07-24T09:03:42;13.70;;;10.25;;
51020;SDS011;38907;45.562;8.856;2022-07-24T09:08:56;15.07;;;10.75;;
51020;SDS011;38907;45.562;8.856;2022-07-24T09:14:01;20.73;;;11.77;;
51020;SDS011;38907;45.562;8.856;2022-07-24T09:19:22;20.35;;;11.45;;
51020;SDS011;38907;45.562;8.856;2022-07-24T09:24:25;15.95;;;13.70;;
51020;SDS011;38907;45.562;8.856;2022-07-24T09:29:28;15.07;;;10.18;;
51020;SDS011;38907;45.562;8.856;2022-07-24T09:34:38;18.00;;;9.88;;
51020;SDS011;38907;45.562;8.856;2022-07-24T09:39:44;14.02;;;9.90;;
51020;SDS011;38907;45.562;8.856;2022-07-24T09:44:47;16.88;;;10.00;;
51020;SDS011;38907;45.562;8.856;2022-07-24T09:50:11;16.25;;;9.90;;
51020;SDS011;38907;45.562;8.856;2022-07-24T09:55:22;11.93;;;9.88;;
51020;SDS011;38907;45.562;8.856;2022-07-24T10:00:26;13.05;;;9.15;;
51020;SDS011;38907;45.562;8.856;2022-07-24T10:05:30;14.43;;;10.15;;
51020;SDS011;38907;45.562;8.856;2022-07-24T10:10:41;13.10;;;10.05;;
51020;SDS011;38907;45.562;8.856;2022-07-24T10:15:47;11.60;;;9.98;;
51020;SDS011;38907;45.562;8.856;2022-07-24T10:20:59;12.75;;;9.63;;
51020;SDS011;38907;45.562;8.856;2022-07-24T10:26:10;17.13;;;10.00;;
51020;SDS011;38907;45.562;8.856;2022-07-24T10:31:18;11.60;;;10.20;;
51020;SDS011;38907;45.562;8.856;2022-07-24T10:36:25;14.48;;;9.30;;
51020;SDS011;38907;45.562;8.856;2022-07-24T10:41:32;13.30;;;10.57;;
51020;SDS011;38907;45.562;8.856;2022-07-24T10:46:45;14.25;;;10.05;;
51020;SDS011;38907;45.562;8.856;2022-07-24T10:52:00;14.05;;;10.02;;
51020;SDS011;38907;45.562;8.856;2022-07-24T10:57:03;11.38;;;9.48;;
51020;SDS011;38907;45.562;8.856;2022-07-24T11:07:35;12.43;;;10.07;;
51020;SDS011;38907;45.562;8.856;2022-07-24T11:12:41;15.25;;;10.45;;
51020;SDS011;38907;45.562;8.856;2022-07-24T11:17:44;15.13;;;10.32;;
51020;SDS011;38907;45.562;8.856;2022-07-24T11:22:50;13.02;;;9.60;;
51020;SDS011;38907;45.562;8.856;2022-07-24T11:27:55;11.23;;;9.50;;
51020;SDS011;38907;45.562;8.856;2022-07-24T11:33:00;11.88;;;9.82;;
51020;SDS011;38907;45.562;8.856;2022-07-24T11:38:04;14.70;;;9.35;;
51020;SDS011;38907;45.562;8.856;2022-07-24T11:43:08;10.48;;;8.70;;
51020;SDS011;38907;45.562;8.856;2022-07-24T11:48:18;11.20;;;9.02;;
51020;SDS011;38907;45.562;8.856;2022-07-24T11:53:22;12.38;;;9.35;;
51020;SDS011;38907;45.562;8.856;2022-07-24T11:58:26;16.73;;;9.30;;
51020;SDS011;38907;45.562;8.856;2022-07-24T12:03:29;12.43;;;9.90;;
51020;SDS011;38907;45.562;8.856;2022-07-24T12:08:33;13.55;;;9.77;;
51020;SDS011;38907;45.562;8.856;2022-07-24T12:13:40;10.65;;;9.55;;
51020;SDS011;38907;45.562;8.856;2022-07-24T12:18:43;10.45;;;9.35;;
51020;SDS011;38907;45.562;8.856;2022-07-24T12:23:50;11.50;;;9.57;;
51020;SDS011;38907;45.562;8.856;2022-07-24T12:29:07;15.18;;;9.70;;
51020;SDS011;38907;45.562;8.856;2022-07-24T12:34:11;11.85;;;8.82;;
51020;SDS011;38907;45.562;8.856;2022-07-24T12:39:15;13.38;;;10.05;;
51020;SDS011;38907;45.562;8.856;2022-07-24T12:44:18;20.10;;;9.27;;
51020;SDS011;38907;45.562;8.856;2022-07-24T12:49:22;11.57;;;9.60;;
51020;SDS011;38907;45.562;8.856;2022-07-24T12:54:27;12.68;;;9.32;;
51020;SDS011;38907;45.562;8.856;2022-07-24T12:59:33;13.10;;;9.20;;
51020;SDS011;38907;45.562;8.856;2022-07-24T13:04:40;9.48;;;8.57;;
51020;SDS011;38907;45.562;8.856;2022-07-24T13:09:45;16.20;;;9.20;;
51020;SDS011;38907;45.562;8.856;2022-07-24T13:14:48;11.05;;;8.15;;
51020;SDS011;38907;45.562;8.856;2022-07-24T13:19:51;12.35;;;8.40;;
51020;SDS011;38907;45.562;8.856;2022-07-24T13:24:56;10.73;;;9.02;;
51020;SDS011;38907;45.562;8.856;2022-07-24T13:29:59;12.48;;;8.38;;
51020;SDS011;38907;45.562;8.856;2022-07-24T13:35:02;10.68;;;8.55;;
51020;SDS011;38907;45.562;8.856;2022-07-24T13:40:07;12.13;;;9.18;;
51020;SDS011;38907;45.562;8.856;2022-07-24T13:45:14;12.98;;;8.80;;
51020;SDS011;38907;45.562;8.856;2022-07-24T13:50:17;11.32;;;8.25;;
51020;SDS011;38907;45.562;8.856;2022-07-24T13:55:21;14.27;;;8.57;;
51020;SDS011;38907;45.562;8.856;2022-07-24T14:00:24;12.00;;;9.43;;
51020;SDS011;38907;45.562;8.856;2022-07-24T14:05:27;11.60;;;7.88;;
51020;SDS011;38907;45.562;8.856;2022-07-24T14:10:32;13.43;;;7.45;;
51020;SDS011;38907;45.562;8.856;2022-07-24T14:15:36;12.18;;;8.50;;
51020;SDS011;38907;45.562;8.856;2022-07-24T14:20:39;9.75;;;8.65;;
51020;SDS011;38907;45.562;8.856;2022-07-24T14:25:44;11.73;;;7.80;;
51020;SDS011;38907;45.562;8.856;2022-07-24T14:30:47;10.05;;;7.72;;
51020;SDS011;38907;45.562;8.856;2022-07-24T14:35:50;9.32;;;8.10;;
51020;SDS011;38907;45.562;8.856;2022-07-24T14:40:54;11.13;;;8.00;;
51020;SDS011;38907;45.562;8.856;2022-07-24T14:45:57;12.85;;;8.35;;
51020;SDS011;38907;45.562;8.856;2022-07-24T14:51:00;10.85;;;9.02;;
51020;SDS011;38907;45.562;8.856;2022-07-24T14:56:06;13.00;;;8.05;;
51020;SDS011;38907;45.562;8.856;2022-07-24T15:01:10;10.05;;;7.93;;
51020;SDS011;38907;45.562;8.856;2022-07-24T15:06:13;11.77;;;7.75;;
51020;SDS011;38907;45.562;8.856;2022-07-24T15:11:18;10.38;;;7.72;;
51020;SDS011;38907;45.562;8.856;2022-07-24T15:16:25;10.43;;;8.05;;
51020;SDS011;38907;45.562;8.856;2022-07-24T15:21:28;9.35;;;7.90;;
51020;SDS011;38907;45.562;8.856;2022-07-24T15:26:33;9.25;;;7.05;;
51020;SDS011;38907;45.562;8.856;2022-07-24T15:31:37;14.07;;;8.25;;
51020;SDS011;38907;45.562;8.856;2022-07-24T15:36:40;12.88;;;8.25;;
51020;SDS011;38907;45.562;8.856;2022-07-24T15:41:44;12.30;;;8.15;;
51020;SDS011;38907;45.562;8.856;2022-07-24T15:46:49;11.20;;;8.85;;
51020;SDS011;38907;45.562;8.856;2022-07-24T15:51:52;14.15;;;8.48;;
51020;SDS011;38907;45.562;8.856;2022-07-24T15:56:57;10.10;;;8.30;;
51020;SDS011;38907;45.562;8.856;2022-07-24T16:02:00;11.25;;;9.25;;
51020;SDS011;38907;45.562;8.856;2022-07-24T16:07:03;10.75;;;8.43;;
51020;SDS011;38907;45.562;8.856;2022-07-24T16:12:08;11.18;;;8.68;;
51020;SDS011;38907;45.562;8.856;2022-07-24T16:17:11;12.48;;;8.20;;
51020;SDS011;38907;45.562;8.856;2022-07-24T16:22:14;12.25;;;8.40;;
51020;SDS011;38907;45.562;8.856;2022-07-24T16:27:19;11.23;;;8.40;;
51020;SDS011;38907;45.562;8.856;2022-07-24T16:32:22;8.75;;;7.82;;
51020;SDS011;38907;45.562;8.856;2022-07-24T16:37:25;8.75;;;7.82;;
51020;SDS011;38907;45.562;8.856;2022-07-24T16:42:29;10.35;;;8.35;;
51020;SDS011;38907;45.562;8.856;2022-07-24T16:47:32;9.15;;;8.25;;
51020;SDS011;38907;45.562;8.856;2022-07-24T16:52:35;16.02;;;8.73;;
51020;SDS011;38907;45.562;8.856;2022-07-24T16:57:40;10.10;;;8.45;;
51020;SDS011;38907;45.562;8.856;2022-07-24T17:02:42;15.10;;;8.45;;
51020;SDS011;38907;45.562;8.856;2022-07-24T17:07:45;12.23;;;9.00;;
51020;SDS011;38907;45.562;8.856;2022-07-24T17:12:50;15.18;;;9.02;;
51020;SDS011;38907;45.562;8.856;2022-07-24T17:17:53;13.75;;;9.30;;
51020;SDS011;38907;45.562;8.856;2022-07-24T17:23:07;12.63;;;8.23;;
51020;SDS011;38907;45.562;8.856;2022-07-24T17:28:12;10.13;;;8.45;;
51020;SDS011;38907;45.562;8.856;2022-07-24T17:33:15;14.43;;;9.00;;
51020;SDS011;38907;45.562;8.856;2022-07-24T17:38:21;10.55;;;8.63;;
51020;SDS011;38907;45.562;8.856;2022-07-24T17:43:25;12.45;;;8.43;;
51020;SDS011;38907;45.562;8.856;2022-07-24T17:48:28;9.40;;;8.43;;
51020;SDS011;38907;45.562;8.856;2022-07-24T17:53:31;12.43;;;8.93;;
51020;SDS011;38907;45.562;8.856;2022-07-24T17:58:37;12.10;;;9.90;;
51020;SDS011;38907;45.562;8.856;2022-07-24T18:03:41;14.32;;;8.85;;
51020;SDS011;38907;45.562;8.856;2022-07-24T18:08:44;13.60;;;9.32;;
51020;SDS011;38907;45.562;8.856;2022-07-24T18:13:49;12.60;;;9.00;;
51020;SDS011;38907;45.562;8.856;2022-07-24T18:18:53;11.25;;;9.57;;
51020;SDS011;38907;45.562;8.856;2022-07-24T18:23:56;11.77;;;9.45;;
51020;SDS011;38907;45.562;8.856;2022-07-24T18:29:02;10.43;;;8.38;;
51020;SDS011;38907;45.562;8.856;2022-07-24T18:34:06;13.18;;;9.27;;
51020;SDS011;38907;45.562;8.856;2022-07-24T18:39:10;16.50;;;8.88;;
51020;SDS011;38907;45.562;8.856;2022-07-24T18:44:16;17.23;;;8.85;;
51020;SDS011;38907;45.562;8.856;2022-07-24T18:49:19;11.07;;;9.57;;
51020;SDS011;38907;45.562;8.856;2022-07-24T18:54:22;12.95;;;8.15;;
51020;SDS011;38907;45.562;8.856;2022-07-24T18:59:26;15.25;;;8.98;;
51020;SDS011;38907;45.562;8.856;2022-07-24T19:04:30;10.13;;;9.02;;
51020;SDS011;38907;45.562;8.856;2022-07-24T19:09:33;13.73;;;8.98;;
51020;SDS011;38907;45.562;8.856;2022-07-24T19:14:39;20.40;;;9.20;;
51020;SDS011;38907;45.562;8.856;2022-07-24T19:19:41;24.83;;;9.23;;
51020;SDS011;38907;45.562;8.856;2022-07-24T19:24:44;14.70;;;9.10;;
51020;SDS011;38907;45.562;8.856;2022-07-24T19:29:49;11.82;;;8.45;;
51020;SDS011;38907;45.562;8.856;2022-07-24T19:34:54;10.80;;;8.65;;
51020;SDS011;38907;45.562;8.856;2022-07-24T19:39:57;12.98;;;8.02;;
51020;SDS011;38907;45.562;8.856;2022-07-24T19:45:02;11.43;;;8.57;;
51020;SDS011;38907;45.562;8.856;2022-07-24T19:50:06;18.48;;;8.82;;
51020;SDS011;38907;45.562;8.856;2022-07-24T19:55:09;13.40;;;9.10;;
51020;SDS011;38907;45.562;8.856;2022-07-24T20:00:14;12.57;;;9.20;;
51020;SDS011;38907;45.562;8.856;2022-07-24T20:05:18;16.35;;;9.02;;
51020;SDS011;38907;45.562;8.856;2022-07-24T20:10:21;13.38;;;8.82;;
51020;SDS011;38907;45.562;8.856;2022-07-24T20:15:26;12.60;;;9.05;;
51020;SDS011;38907;45.562;8.856;2022-07-24T20:20:30;18.65;;;9.75;;
51020;SDS011;38907;45.562;8.856;2022-07-24T20:25:33;14.35;;;8.90;;
51020;SDS011;38907;45.562;8.856;2022-07-24T20:30:37;11.48;;;8.95;;
51020;SDS011;38907;45.562;8.856;2022-07-24T20:35:40;12.98;;;8.75;;
51020;SDS011;38907;45.562;8.856;2022-07-24T20:40:44;19.85;;;9.32;;
51020;SDS011;38907;45.562;8.856;2022-07-24T20:45:49;19.13;;;9.55;;
51020;SDS011;38907;45.562;8.856;2022-07-24T20:50:52;14.07;;;8.63;;
51020;SDS011;38907;45.562;8.856;2022-07-24T20:55:56;11.48;;;8.57;;
51020;SDS011;38907;45.562;8.856;2022-07-24T21:01:00;19.30;;;8.60;;
51020;SDS011;38907;45.562;8.856;2022-07-24T21:06:04;13.98;;;8.73;;
51020;SDS011;38907;45.562;8.856;2022-07-24T21:11:07;12.55;;;8.73;;
51020;SDS011;38907;45.562;8.856;2022-07-24T21:16:12;14.10;;;9.25;;
51020;SDS011;38907;45.562;8.856;2022-07-24T21:21:16;11.95;;;8.23;;
51020;SDS011;38907;45.562;8.856;2022-07-24T21:26:19;14.85;;;9.35;;
51020;SDS011;38907;45.562;8.856;2022-07-24T21:31:24;11.43;;;8.50;;
51020;SDS011;38907;45.562;8.856;2022-07-24T21:36:27;11.63;;;8.88;;
51020;SDS011;38907;45.562;8.856;2022-07-24T21:41:30;14.35;;;9.85;;
51020;SDS011;38907;45.562;8.856;2022-07-24T21:46:34;11.15;;;9.02;;
51020;SDS011;38907;45.562;8.856;2022-07-24T21:51:37;15.02;;;9.50;;
51020;SDS011;38907;45.562;8.856;2022-07-24T21:56:40;16.38;;;9.38;;
51020;SDS011;38907;45.562;8.856;2022-07-24T22:01:45;15.15;;;9.27;;
51020;SDS011;38907;45.562;8.856;2022-07-24T22:06:53;17.40;;;8.93;;
51020;SDS011;38907;45.562;8.856;2022-07-24T22:11:57;15.70;;;10.07;;
51020;SDS011;38907;45.562;8.856;2022-07-24T22:17:02;12.15;;;9.07;;
51020;SDS011;38907;45.562;8.856;2022-07-24T22:22:05;13.18;;;9.65;;
51020;SDS011;38907;45.562;8.856;2022-07-24T22:27:09;13.85;;;10.05;;
51020;SDS011;38907;45.562;8.856;2022-07-24T22:32:14;10.85;;;9.13;;
51020;SDS011;38907;45.562;8.856;2022-07-24T22:37:18;11.35;;;9.75;;
51020;SDS011;38907;45.562;8.856;2022-07-24T22:42:21;12.40;;;10.18;;
51020;SDS011;38907;45.562;8.856;2022-07-24T22:47:26;11.82;;;9.48;;
51020;SDS011;38907;45.562;8.856;2022-07-24T22:52:29;11.38;;;9.57;;
51020;SDS011;38907;45.562;8.856;2022-07-24T22:57:33;11.60;;;8.98;;
51020;SDS011;38907;45.562;8.856;2022-07-24T23:02:38;12.35;;;9.18;;
51020;SDS011;38907;45.562;8.856;2022-07-24T23:07:41;15.20;;;9.20;;
51020;SDS011;38907;45.562;8.856;2022-07-24T23:12:44;11.45;;;8.82;;
51020;SDS011;38907;45.562;8.856;2022-07-24T23:17:49;11.88;;;10.02;;
51020;SDS011;38907;45.562;8.856;2022-07-24T23:22:52;11.75;;;9.32;;
51020;SDS011;38907;45.562;8.856;2022-07-24T23:27:55;16.35;;;9.27;;
51020;SDS011;38907;45.562;8.856;2022-07-24T23:33:00;11.93;;;9.30;;
51020;SDS011;38907;45.562;8.856;2022-07-24T23:38:03;13.40;;;9.27;;
51020;SDS011;38907;45.562;8.856;2022-07-24T23:43:06;12.57;;;9.38;;
51020;SDS011;38907;45.562;8.856;2022-07-24T23:48:10;13.30;;;9.50;;
51020;SDS011;38907;45.562;8.856;2022-07-24T23:53:13;10.77;;;9.43;;
51020;SDS011;38907;45.562;8.856;2022-07-24T23:58:16;14.18;;;9.65;;
